Time;durP1;ratioP1;P1;durP2;ratioP2;P2;SDS_P1;SDS_P2;PMS_P1;PMS_P2;Temp;Humidity;BMP_temperature;BMP_pressure;BME280_temperature;BME280_humidity;BME280_pressure;Samples;Min_cycle;Max_cycle;Signal;HPM_P1;HPM_P2
2023/09/09 00:01:06;;;;;;;6.32;2.67;;;;;;;;;;4939351;28;20035;-70
2023/09/09 00:03:32;;;;;;;7.88;2.55;;;;;;;;;;4941162;28;20314;-70
2023/09/09 00:05:58;;;;;;;7.95;2.60;;;;;;;;;;4939485;28;20461;-70
2023/09/09 00:08:24;;;;;;;6.70;2.95;;;;;;;;;;4935207;28;20041;-70
2023/09/09 00:10:50;;;;;;;6.72;2.58;;;;;;;;;;4938015;28;20044;-70
2023/09/09 00:13:17;;;;;;;6.72;2.35;;;;;;;;;;4938243;28;20062;-70
2023/09/09 00:15:43;;;;;;;7.25;2.67;;;;;;;;;;4941007;28;20113;-70
2023/09/09 00:18:12;;;;;;;7.40;2.97;;;;;;;;;;4944973;28;20327;-71
2023/09/09 00:20:40;;;;;;;6.95;2.90;;;;;;;;;;4938706;28;20455;-71
2023/09/09 00:23:09;;;;;;;6.85;2.90;;;;;;;;;;4940753;28;20936;-71
2023/09/09 00:25:36;;;;;;;6.68;2.80;;;;;;;;;;4933975;28;20569;-71
2023/09/09 00:28:03;;;;;;;7.13;2.75;;;;;;;;;;4939761;28;20418;-71
2023/09/09 00:30:29;;;;;;;8.20;2.70;;;;;;;;;;4936539;28;20046;-71
2023/09/09 00:32:55;;;;;;;7.55;2.70;;;;;;;;;;4932487;28;20145;-71
2023/09/09 00:35:21;;;;;;;6.65;2.50;;;;;;;;;;4936707;28;20443;-71
2023/09/09 00:37:47;;;;;;;7.18;2.83;;;;;;;;;;4939885;28;20105;-69
2023/09/09 00:40:14;;;;;;;6.15;3.00;;;;;;;;;;4934082;28;20027;-69
2023/09/09 00:42:40;;;;;;;8.35;3.08;;;;;;;;;;4939727;28;20054;-70
2023/09/09 00:45:06;;;;;;;6.32;2.63;;;;;;;;;;4941498;28;20470;-69
2023/09/09 00:47:33;;;;;;;7.18;2.92;;;;;;;;;;4939271;28;20248;-69
2023/09/09 00:49:59;;;;;;;6.35;2.83;;;;;;;;;;4940709;28;20323;-69
2023/09/09 00:52:26;;;;;;;8.32;2.70;;;;;;;;;;4937340;28;20050;-69
2023/09/09 00:54:52;;;;;;;6.75;2.88;;;;;;;;;;4943886;28;20038;-69
2023/09/09 00:57:19;;;;;;;6.72;2.80;;;;;;;;;;4938467;28;20039;-69
2023/09/09 00:59:45;;;;;;;6.35;2.55;;;;;;;;;;4945037;28;20413;-69
2023/09/09 01:02:11;;;;;;;7.05;2.85;;;;;;;;;;4947210;28;20520;-69
2023/09/09 01:04:37;;;;;;;9.63;3.00;;;;;;;;;;4941752;28;20037;-69
2023/09/09 01:07:04;;;;;;;7.25;2.83;;;;;;;;;;4946719;28;20556;-69
2023/09/09 01:09:31;;;;;;;8.02;2.85;;;;;;;;;;4937233;28;20031;-69
2023/09/09 01:11:57;;;;;;;7.82;3.13;;;;;;;;;;4942837;28;20445;-69
2023/09/09 01:14:23;;;;;;;7.82;3.25;;;;;;;;;;4938753;28;20385;-69
2023/09/09 01:16:51;;;;;;;7.90;2.70;;;;;;;;;;4942539;28;20410;-69
2023/09/09 01:19:20;;;;;;;6.85;2.80;;;;;;;;;;4939499;28;20480;-69
2023/09/09 01:21:47;;;;;;;7.20;2.58;;;;;;;;;;4942946;28;20023;-69
2023/09/09 01:24:15;;;;;;;8.88;2.90;;;;;;;;;;4939510;28;20078;-69
2023/09/09 01:26:41;;;;;;;6.07;2.75;;;;;;;;;;4940515;28;20843;-69
2023/09/09 01:29:07;;;;;;;7.32;2.90;;;;;;;;;;4939922;28;20035;-69
2023/09/09 01:31:33;;;;;;;6.65;2.65;;;;;;;;;;4942449;28;20125;-69
2023/09/09 01:33:59;;;;;;;6.50;2.70;;;;;;;;;;4939130;28;20039;-69
2023/09/09 01:36:25;;;;;;;8.32;2.70;;;;;;;;;;4937601;28;20544;-69
2023/09/09 01:38:52;;;;;;;7.43;2.90;;;;;;;;;;4940247;28;20047;-69
2023/09/09 01:41:18;;;;;;;7.63;2.80;;;;;;;;;;4938162;28;20339;-69
2023/09/09 01:43:45;;;;;;;7.15;2.55;;;;;;;;;;4940640;28;20047;-69
2023/09/09 01:46:12;;;;;;;8.48;3.00;;;;;;;;;;4938300;28;20042;-69
2023/09/09 01:48:38;;;;;;;8.93;3.10;;;;;;;;;;4938525;28;20053;-69
2023/09/09 01:51:05;;;;;;;7.72;3.08;;;;;;;;;;4940536;28;20466;-69
2023/09/09 01:53:31;;;;;;;9.23;3.20;;;;;;;;;;4941974;28;20540;-69
2023/09/09 01:56:00;;;;;;;8.85;3.42;;;;;;;;;;4935161;28;20505;-69
2023/09/09 01:58:26;;;;;;;8.13;3.03;;;;;;;;;;4934803;28;20023;-69
2023/09/09 02:00:53;;;;;;;8.00;2.92;;;;;;;;;;4940107;28;20568;-69
2023/09/09 02:03:19;;;;;;;9.50;3.83;;;;;;;;;;4939675;28;20071;-69
2023/09/09 02:05:45;;;;;;;7.20;3.20;;;;;;;;;;4943062;28;20264;-69
2023/09/09 02:08:12;;;;;;;7.93;3.05;;;;;;;;;;4938119;28;20730;-69
2023/09/09 02:10:38;;;;;;;6.53;2.80;;;;;;;;;;4939518;28;20302;-69
2023/09/09 02:13:04;;;;;;;6.88;2.90;;;;;;;;;;4941778;28;20042;-69
2023/09/09 02:15:30;;;;;;;6.32;2.53;;;;;;;;;;4937094;28;20081;-69
2023/09/09 02:17:57;;;;;;;8.13;3.17;;;;;;;;;;4938333;28;20031;-69
2023/09/09 02:20:23;;;;;;;8.45;3.00;;;;;;;;;;4937642;28;20029;-69
2023/09/09 02:22:50;;;;;;;8.85;3.80;;;;;;;;;;4938069;28;20090;-69
2023/09/09 02:25:16;;;;;;;7.45;2.90;;;;;;;;;;4937340;28;20327;-70
2023/09/09 02:27:42;;;;;;;6.85;2.78;;;;;;;;;;4938824;28;20031;-69
2023/09/09 02:30:08;;;;;;;8.73;2.60;;;;;;;;;;4939486;28;20069;-69
2023/09/09 02:32:35;;;;;;;8.73;3.25;;;;;;;;;;4939337;28;20038;-69
2023/09/09 02:35:01;;;;;;;7.07;2.85;;;;;;;;;;4938282;28;20635;-69
2023/09/09 02:37:27;;;;;;;8.13;3.05;;;;;;;;;;4938229;28;20311;-69
2023/09/09 02:39:53;;;;;;;8.13;2.58;;;;;;;;;;4932887;28;20043;-69
2023/09/09 02:42:20;;;;;;;9.00;3.00;;;;;;;;;;4928638;28;20047;-69
2023/09/09 02:44:46;;;;;;;6.30;2.65;;;;;;;;;;4949931;28;20041;-69
2023/09/09 02:47:13;;;;;;;8.45;2.65;;;;;;;;;;4947883;28;20026;-68
2023/09/09 02:49:40;;;;;;;8.15;2.83;;;;;;;;;;4949377;28;20022;-69
2023/09/09 02:52:06;;;;;;;7.10;2.60;;;;;;;;;;4946572;28;20342;-69
2023/09/09 02:54:34;;;;;;;7.22;2.80;;;;;;;;;;4946118;28;20151;-69
2023/09/09 02:57:00;;;;;;;6.50;2.53;;;;;;;;;;4954770;28;20114;-69
2023/09/09 02:59:26;;;;;;;7.03;2.58;;;;;;;;;;4940612;28;20034;-69
2023/09/09 03:01:52;;;;;;;9.02;2.80;;;;;;;;;;4943479;28;20433;-69
2023/09/09 03:04:21;;;;;;;7.93;2.70;;;;;;;;;;4943481;28;20041;-69
2023/09/09 03:06:48;;;;;;;6.97;2.90;;;;;;;;;;4944059;28;20619;-69
2023/09/09 03:09:14;;;;;;;6.85;2.70;;;;;;;;;;4941121;28;20473;-69
2023/09/09 03:11:41;;;;;;;8.27;2.90;;;;;;;;;;4944685;28;20031;-69
2023/09/09 03:14:08;;;;;;;6.55;2.58;;;;;;;;;;4944259;28;20039;-69
2023/09/09 03:16:34;;;;;;;6.45;2.47;;;;;;;;;;4941322;28;20815;-69
2023/09/09 03:19:00;;;;;;;6.43;2.10;;;;;;;;;;4929321;28;20031;-69
2023/09/09 03:21:26;;;;;;;7.22;2.72;;;;;;;;;;4928436;28;20039;-69
2023/09/09 03:23:52;;;;;;;7.13;2.70;;;;;;;;;;4927822;28;20062;-69
2023/09/09 03:26:19;;;;;;;7.15;2.55;;;;;;;;;;4932357;28;20043;-69
2023/09/09 03:28:46;;;;;;;5.95;2.47;;;;;;;;;;4928372;28;20501;-69
2023/09/09 03:31:12;;;;;;;7.55;2.78;;;;;;;;;;4931943;28;20034;-69
2023/09/09 03:33:39;;;;;;;6.30;2.63;;;;;;;;;;4930000;28;20064;-69
2023/09/09 03:36:05;;;;;;;5.90;2.30;;;;;;;;;;4933043;28;20455;-69
2023/09/09 03:38:31;;;;;;;6.80;2.45;;;;;;;;;;4927813;28;20134;-70
2023/09/09 03:40:58;;;;;;;7.82;2.78;;;;;;;;;;4929573;28;20847;-69
2023/09/09 03:43:24;;;;;;;5.30;2.15;;;;;;;;;;4927862;28;20069;-69
2023/09/09 03:45:56;;;;;;;6.75;2.60;;;;;;;;;;4931306;28;20030;-69
2023/09/09 03:48:23;;;;;;;6.82;2.45;;;;;;;;;;4926536;28;20051;-69
2023/09/09 03:50:49;;;;;;;7.70;2.70;;;;;;;;;;4929023;28;20572;-69
2023/09/09 03:53:16;;;;;;;6.32;2.33;;;;;;;;;;4931665;28;20361;-70
2023/09/09 03:55:42;;;;;;;6.45;2.42;;;;;;;;;;4940420;28;20129;-69
2023/09/09 03:58:08;;;;;;;6.70;2.50;;;;;;;;;;4944123;28;20046;-69
2023/09/09 04:00:34;;;;;;;6.78;2.70;;;;;;;;;;4945076;28;20035;-70
2023/09/09 04:03:00;;;;;;;6.75;2.75;;;;;;;;;;4940286;28;20051;-70
2023/09/09 04:05:27;;;;;;;6.85;2.60;;;;;;;;;;4943284;28;20081;-70
2023/09/09 04:07:53;;;;;;;7.25;2.60;;;;;;;;;;4937586;28;20572;-69
2023/09/09 04:10:19;;;;;;;8.70;2.63;;;;;;;;;;4940506;28;20034;-71
2023/09/09 04:12:45;;;;;;;6.75;2.50;;;;;;;;;;4947952;28;20027;-69
2023/09/09 04:15:11;;;;;;;9.13;2.92;;;;;;;;;;4941455;28;20319;-71
2023/09/09 04:17:40;;;;;;;7.88;2.88;;;;;;;;;;4944459;28;20034;-71
2023/09/09 04:20:07;;;;;;;6.97;2.80;;;;;;;;;;4945163;28;20027;-70
2023/09/09 04:22:33;;;;;;;8.50;2.80;;;;;;;;;;4943232;28;20127;-71
2023/09/09 04:24:59;;;;;;;8.02;3.00;;;;;;;;;;4942222;28;20046;-71
2023/09/09 04:27:26;;;;;;;5.55;2.20;;;;;;;;;;4945152;28;20379;-70
2023/09/09 04:29:52;;;;;;;7.78;2.67;;;;;;;;;;4944122;28;20042;-70
2023/09/09 04:32:18;;;;;;;7.00;2.45;;;;;;;;;;4944302;28;20035;-70
2023/09/09 04:34:44;;;;;;;7.30;2.80;;;;;;;;;;4949074;28;20461;-71
2023/09/09 04:37:10;;;;;;;7.57;2.78;;;;;;;;;;4943585;28;20038;-71
2023/09/09 04:39:36;;;;;;;7.40;2.63;;;;;;;;;;4944569;28;20487;-70
2023/09/09 04:42:03;;;;;;;7.72;2.65;;;;;;;;;;4947206;28;20544;-71
2023/09/09 04:44:29;;;;;;;8.07;2.90;;;;;;;;;;4944579;28;20035;-71
2023/09/09 04:46:55;;;;;;;8.32;2.95;;;;;;;;;;4946830;28;20537;-70
2023/09/09 04:49:22;;;;;;;8.15;2.85;;;;;;;;;;4946824;28;20069;-70
2023/09/09 04:51:48;;;;;;;8.57;2.97;;;;;;;;;;4944222;28;20443;-70
2023/09/09 04:54:15;;;;;;;8.02;2.65;;;;;;;;;;4946278;28;20038;-71
2023/09/09 04:56:41;;;;;;;9.35;2.92;;;;;;;;;;4947020;28;20026;-70
2023/09/09 04:59:07;;;;;;;7.63;3.03;;;;;;;;;;4950221;28;20038;-71
2023/09/09 05:01:34;;;;;;;7.45;3.00;;;;;;;;;;4943496;28;20117;-70
2023/09/09 05:04:00;;;;;;;7.72;3.00;;;;;;;;;;4947247;28;20035;-71
2023/09/09 05:06:26;;;;;;;8.35;2.83;;;;;;;;;;4948969;28;20082;-71
2023/09/09 05:08:52;;;;;;;6.97;2.80;;;;;;;;;;4947287;28;20033;-70
2023/09/09 05:11:18;;;;;;;7.05;2.70;;;;;;;;;;4947323;28;20457;-70
2023/09/09 05:13:44;;;;;;;6.85;2.30;;;;;;;;;;4950966;28;20610;-71
2023/09/09 05:16:10;;;;;;;8.05;2.58;;;;;;;;;;4949229;28;20030;-71
2023/09/09 05:18:36;;;;;;;6.95;2.67;;;;;;;;;;4949774;28;20433;-71
2023/09/09 05:21:03;;;;;;;7.15;2.47;;;;;;;;;;4951230;28;20464;-71
2023/09/09 05:23:29;;;;;;;7.43;2.70;;;;;;;;;;4950224;28;21063;-71
2023/09/09 05:25:55;;;;;;;6.25;2.53;;;;;;;;;;4947972;28;20501;-71
2023/09/09 05:28:21;;;;;;;7.65;2.80;;;;;;;;;;4949155;28;20049;-72
2023/09/09 05:30:47;;;;;;;6.82;2.83;;;;;;;;;;4952332;28;20034;-69
2023/09/09 05:33:13;;;;;;;10.60;2.70;;;;;;;;;;4947976;28;20038;-69
2023/09/09 05:35:39;;;;;;;7.00;2.40;;;;;;;;;;4952221;28;20117;-69
2023/09/09 05:38:05;;;;;;;6.18;2.53;;;;;;;;;;4952578;28;20109;-69
2023/09/09 05:40:32;;;;;;;8.85;2.80;;;;;;;;;;4949186;28;20196;-69
2023/09/09 05:42:58;;;;;;;7.97;2.80;;;;;;;;;;4951750;28;20051;-71
2023/09/09 05:45:24;;;;;;;6.43;2.60;;;;;;;;;;4948983;28;20140;-69
2023/09/09 05:47:50;;;;;;;7.00;2.50;;;;;;;;;;4949606;28;20053;-69
2023/09/09 05:50:16;;;;;;;6.80;2.28;;;;;;;;;;4930601;28;20457;-69
2023/09/09 05:52:42;;;;;;;6.95;2.60;;;;;;;;;;4949806;28;20034;-69
2023/09/09 05:55:09;;;;;;;8.43;2.20;;;;;;;;;;4948383;28;20069;-69
2023/09/09 05:57:35;;;;;;;7.53;2.50;;;;;;;;;;4946324;28;20026;-69
2023/09/09 06:00:02;;;;;;;7.53;2.88;;;;;;;;;;4947764;28;20417;-68
2023/09/09 06:02:28;;;;;;;7.57;2.70;;;;;;;;;;4940294;28;20022;-69
2023/09/09 06:04:54;;;;;;;6.60;2.63;;;;;;;;;;4945834;28;20394;-69
2023/09/09 06:07:20;;;;;;;7.70;2.67;;;;;;;;;;4947247;28;20496;-71
2023/09/09 06:09:46;;;;;;;8.05;2.60;;;;;;;;;;4945813;28;20011;-70
2023/09/09 06:12:13;;;;;;;7.40;2.58;;;;;;;;;;4946445;28;20391;-70
2023/09/09 06:14:39;;;;;;;5.95;2.10;;;;;;;;;;4946293;28;20074;-70
2023/09/09 06:17:05;;;;;;;6.53;2.30;;;;;;;;;;4944474;28;20689;-70
2023/09/09 06:19:31;;;;;;;8.60;2.30;;;;;;;;;;4947228;28;20050;-70
2023/09/09 06:21:57;;;;;;;6.45;2.17;;;;;;;;;;4950218;28;20038;-70
2023/09/09 06:24:23;;;;;;;8.05;2.70;;;;;;;;;;4947295;28;20553;-70
2023/09/09 06:26:50;;;;;;;6.50;2.30;;;;;;;;;;4952857;28;20532;-70
2023/09/09 06:29:16;;;;;;;7.15;2.35;;;;;;;;;;4944856;28;20031;-70
2023/09/09 06:31:42;;;;;;;7.30;2.58;;;;;;;;;;4947683;28;20030;-70
2023/09/09 06:34:11;;;;;;;8.05;2.70;;;;;;;;;;4948703;28;20610;-69
2023/09/09 06:36:37;;;;;;;8.25;3.00;;;;;;;;;;4949121;28;20048;-71
2023/09/09 06:39:03;;;;;;;6.22;2.20;;;;;;;;;;4945427;28;20109;-71
2023/09/09 06:41:29;;;;;;;6.68;2.58;;;;;;;;;;4948800;28;20149;-69
2023/09/09 06:43:56;;;;;;;7.80;2.53;;;;;;;;;;4945193;28;20519;-70
2023/09/09 06:46:22;;;;;;;6.90;2.50;;;;;;;;;;4945007;28;20034;-70
2023/09/09 06:48:48;;;;;;;10.30;3.40;;;;;;;;;;4947932;28;20334;-69
2023/09/09 06:51:15;;;;;;;10.05;3.40;;;;;;;;;;4944747;28;20046;-69
2023/09/09 06:53:42;;;;;;;10.98;3.40;;;;;;;;;;4948294;28;20029;-70
2023/09/09 06:56:08;;;;;;;10.52;3.92;;;;;;;;;;4947169;28;20039;-70
2023/09/09 06:58:34;;;;;;;9.65;3.65;;;;;;;;;;4947383;28;20475;-70
2023/09/09 07:01:02;;;;;;;10.23;3.70;;;;;;;;;;4947205;28;20465;-69
2023/09/09 07:03:29;;;;;;;10.35;3.58;;;;;;;;;;4943374;28;20110;-70
2023/09/09 07:05:55;;;;;;;9.70;3.60;;;;;;;;;;4946038;28;20050;-70
2023/09/09 07:08:21;;;;;;;10.52;3.60;;;;;;;;;;4941543;28;20170;-70
2023/09/09 07:10:51;;;;;;;11.10;4.10;;;;;;;;;;4949960;28;20132;-70
2023/09/09 07:13:17;;;;;;;11.68;4.20;;;;;;;;;;4947960;28;20042;-70
2023/09/09 07:15:44;;;;;;;16.88;3.72;;;;;;;;;;4948884;28;20124;-70
2023/09/09 07:18:10;;;;;;;12.20;3.67;;;;;;;;;;4945892;28;20033;-69
2023/09/09 07:20:36;;;;;;;12.57;3.75;;;;;;;;;;4947357;28;20050;-70
2023/09/09 07:23:02;;;;;;;9.63;3.90;;;;;;;;;;4947476;28;21643;-70
2023/09/09 07:25:28;;;;;;;11.07;3.72;;;;;;;;;;4943188;28;22822;-69
2023/09/09 07:27:54;;;;;;;9.43;3.60;;;;;;;;;;4945199;28;20429;-70
2023/09/09 07:30:20;;;;;;;11.70;3.35;;;;;;;;;;4941004;28;20725;-72
2023/09/09 07:32:47;;;;;;;8.65;3.10;;;;;;;;;;4946366;28;20141;-70
2023/09/09 07:35:13;;;;;;;11.65;3.10;;;;;;;;;;4941878;28;20804;-70
2023/09/09 07:37:39;;;;;;;10.20;3.63;;;;;;;;;;4945903;28;20062;-71
2023/09/09 07:40:06;;;;;;;11.52;4.00;;;;;;;;;;4946425;28;20027;-70
2023/09/09 07:42:32;;;;;;;9.65;3.65;;;;;;;;;;4943720;28;20106;-70
2023/09/09 07:44:58;;;;;;;9.07;3.13;;;;;;;;;;4944964;28;20022;-70
2023/09/09 07:47:24;;;;;;;8.32;3.15;;;;;;;;;;4940990;28;20030;-70
2023/09/09 07:49:51;;;;;;;8.40;2.97;;;;;;;;;;4941031;28;20058;-72
2023/09/09 07:52:17;;;;;;;8.05;3.00;;;;;;;;;;4940397;28;20054;-70
2023/09/09 07:54:43;;;;;;;7.97;2.65;;;;;;;;;;4942735;28;20047;-69
2023/09/09 07:57:09;;;;;;;7.90;2.80;;;;;;;;;;4943118;28;20035;-71
2023/09/09 07:59:35;;;;;;;6.75;2.63;;;;;;;;;;4944693;28;20034;-71
2023/09/09 08:02:03;;;;;;;7.30;2.45;;;;;;;;;;4942531;28;20038;-69
2023/09/09 08:04:29;;;;;;;7.82;2.63;;;;;;;;;;4946551;28;20379;-69
2023/09/09 08:06:55;;;;;;;8.27;2.60;;;;;;;;;;4948917;28;20045;-70
2023/09/09 08:09:21;;;;;;;8.70;2.47;;;;;;;;;;4946500;28;20384;-70
2023/09/09 08:11:48;;;;;;;7.68;2.60;;;;;;;;;;4949134;28;20807;-70
2023/09/09 08:14:14;;;;;;;7.78;2.33;;;;;;;;;;4943101;28;20405;-70
2023/09/09 08:16:41;;;;;;;5.70;2.28;;;;;;;;;;4949901;28;20038;-70
2023/09/09 08:19:07;;;;;;;7.70;2.50;;;;;;;;;;4949078;28;20031;-70
2023/09/09 08:21:33;;;;;;;6.63;2.35;;;;;;;;;;4939335;28;20356;-70
2023/09/09 08:24:00;;;;;;;10.88;2.80;;;;;;;;;;4947008;28;20031;-70
2023/09/09 08:26:27;;;;;;;7.05;2.50;;;;;;;;;;4935633;28;20082;-71
2023/09/09 08:28:54;;;;;;;6.32;2.40;;;;;;;;;;4936464;28;20666;-70
2023/09/09 08:31:20;;;;;;;6.18;2.40;;;;;;;;;;4935916;28;20034;-70
2023/09/09 08:33:46;;;;;;;6.82;2.35;;;;;;;;;;4934673;28;20272;-70
2023/09/09 08:36:14;;;;;;;5.43;1.90;;;;;;;;;;4932668;28;20650;-70
2023/09/09 08:38:40;;;;;;;6.78;2.40;;;;;;;;;;4939226;28;20125;-71
2023/09/09 08:41:11;;;;;;;7.53;2.17;;;;;;;;;;4938199;28;20046;-70
2023/09/09 08:44:06;;;;;;;7.18;2.60;;;;;;;;;;4937353;28;20473;-69
2023/09/09 08:46:32;;;;;;;6.57;1.83;;;;;;;;;;4926718;28;20039;-70
2023/09/09 08:49:00;;;;;;;6.88;2.58;;;;;;;;;;4940713;28;20082;-70
2023/09/09 08:51:29;;;;;;;5.93;2.10;;;;;;;;;;4935413;28;20122;-70
2023/09/09 08:53:56;;;;;;;8.50;2.15;;;;;;;;;;4935409;28;21365;-70
2023/09/09 08:56:22;;;;;;;7.57;2.40;;;;;;;;;;4936608;28;20045;-70
2023/09/09 08:58:49;;;;;;;7.28;2.60;;;;;;;;;;4936677;28;20410;-70
2023/09/09 09:01:16;;;;;;;6.60;2.10;;;;;;;;;;4935192;28;20039;-70
2023/09/09 09:03:43;;;;;;;6.95;2.03;;;;;;;;;;4937604;28;20031;-70
2023/09/09 09:06:09;;;;;;;8.43;2.33;;;;;;;;;;4933463;28;20109;-71
2023/09/09 09:08:36;;;;;;;6.60;2.22;;;;;;;;;;4937586;28;20125;-71
2023/09/09 09:11:03;;;;;;;6.75;2.20;;;;;;;;;;4937597;28;20042;-71
2023/09/09 09:13:32;;;;;;;6.97;2.13;;;;;;;;;;4936770;28;20085;-71
2023/09/09 09:15:59;;;;;;;8.00;1.88;;;;;;;;;;4935468;28;20058;-71
2023/09/09 09:18:26;;;;;;;8.88;2.03;;;;;;;;;;4938195;28;20285;-70
2023/09/09 09:20:53;;;;;;;8.50;2.20;;;;;;;;;;4935487;28;20487;-70
2023/09/09 09:23:19;;;;;;;6.10;1.80;;;;;;;;;;4934230;28;20583;-70
2023/09/09 09:25:46;;;;;;;9.38;2.17;;;;;;;;;;4938989;28;20636;-70
2023/09/09 09:28:15;;;;;;;6.68;1.98;;;;;;;;;;4933981;28;20080;-70
2023/09/09 09:30:42;;;;;;;9.73;2.40;;;;;;;;;;4937591;28;20023;-70
2023/09/09 09:33:08;;;;;;;7.20;2.00;;;;;;;;;;4938489;28;20039;-70
2023/09/09 09:35:37;;;;;;;8.40;2.15;;;;;;;;;;4934498;28;20549;-71
2023/09/09 09:38:06;;;;;;;11.93;2.55;;;;;;;;;;4934671;28;20219;-70
2023/09/09 09:40:32;;;;;;;9.68;2.53;;;;;;;;;;4935364;28;20035;-71
2023/09/09 09:42:58;;;;;;;9.77;2.63;;;;;;;;;;4937111;28;20075;-71
2023/09/09 09:45:31;;;;;;;9.57;2.33;;;;;;;;;;4933963;28;20079;-70
2023/09/09 09:47:58;;;;;;;13.63;2.70;;;;;;;;;;4935738;28;20035;-70
2023/09/09 09:50:30;;;;;;;7.78;2.25;;;;;;;;;;4933298;28;20035;-70
2023/09/09 09:52:58;;;;;;;10.07;2.60;;;;;;;;;;4935705;28;20065;-70
2023/09/09 09:55:25;;;;;;;10.65;2.28;;;;;;;;;;4939591;28;20666;-70
2023/09/09 09:57:54;;;;;;;8.80;2.08;;;;;;;;;;4936370;28;20034;-70
2023/09/09 10:00:21;;;;;;;8.90;1.85;;;;;;;;;;4935464;28;20017;-70
2023/09/09 10:02:51;;;;;;;14.40;2.33;;;;;;;;;;4933711;28;20058;-71
2023/09/09 10:05:20;;;;;;;7.63;2.45;;;;;;;;;;4932043;28;20031;-70
2023/09/09 10:07:48;;;;;;;7.75;2.10;;;;;;;;;;4933783;28;20205;-71
2023/09/09 10:10:16;;;;;;;8.27;2.42;;;;;;;;;;4933065;28;20103;-70
2023/09/09 10:12:55;;;;;;;8.27;1.98;;;;;;;;;;4934958;28;20034;-70
2023/09/09 10:15:21;;;;;;;6.13;1.90;;;;;;;;;;4930990;28;20604;-71
2023/09/09 10:17:50;;;;;;;8.98;1.90;;;;;;;;;;4936445;28;20031;-70
2023/09/09 10:20:17;;;;;;;8.70;2.33;;;;;;;;;;4929744;28;20561;-70
2023/09/09 10:22:44;;;;;;;6.85;2.00;;;;;;;;;;4933146;28;20299;-71
2023/09/09 10:25:13;;;;;;;6.30;1.80;;;;;;;;;;4931988;28;20105;-72
2023/09/09 10:27:39;;;;;;;7.90;2.13;;;;;;;;;;4933109;28;20039;-71
2023/09/09 10:30:08;;;;;;;7.93;1.85;;;;;;;;;;4932428;28;20141;-71
2023/09/09 10:32:35;;;;;;;6.65;1.92;;;;;;;;;;4935694;28;20039;-71
2023/09/09 10:35:03;;;;;;;7.80;2.28;;;;;;;;;;4935410;28;20046;-72
2023/09/09 10:37:31;;;;;;;7.53;1.98;;;;;;;;;;4931268;28;20596;-71
2023/09/09 10:39:57;;;;;;;7.60;2.20;;;;;;;;;;4935373;28;20215;-71
2023/09/09 10:42:24;;;;;;;6.10;2.00;;;;;;;;;;4931746;28;20490;-71
2023/09/09 10:44:50;;;;;;;9.23;1.98;;;;;;;;;;4931805;28;20148;-71
2023/09/09 10:47:16;;;;;;;13.15;2.22;;;;;;;;;;4935137;28;20643;-71
2023/09/09 10:49:43;;;;;;;7.65;2.30;;;;;;;;;;4935685;28;20030;-71
2023/09/09 10:52:29;;;;;;;5.75;1.90;;;;;;;;;;4931603;28;20161;-71
2023/09/09 10:55:10;;;;;;;7.10;2.00;;;;;;;;;;4935964;28;20046;-71
2023/09/09 10:57:36;;;;;;;4.90;1.70;;;;;;;;;;4937859;28;20035;-71
2023/09/09 11:00:06;;;;;;;5.82;1.77;;;;;;;;;;4929616;28;20690;-71
2023/09/09 11:02:43;;;;;;;5.90;1.73;;;;;;;;;;4933945;28;20026;-71
2023/09/09 11:05:14;;;;;;;5.38;1.80;;;;;;;;;;4938261;28;20488;-71
2023/09/09 11:07:40;;;;;;;6.18;2.00;;;;;;;;;;4935931;28;20035;-71
2023/09/09 11:10:07;;;;;;;5.32;2.00;;;;;;;;;;4939256;28;20030;-72
2023/09/09 11:12:33;;;;;;;5.63;1.52;;;;;;;;;;4932597;28;20043;-73
2023/09/09 11:15:09;;;;;;;5.53;1.73;;;;;;;;;;4935553;28;20027;-71
2023/09/09 11:17:43;;;;;;;4.63;1.65;;;;;;;;;;4935791;28;20553;-70
2023/09/09 11:20:12;;;;;;;6.63;1.75;;;;;;;;;;4933063;28;20031;-70
2023/09/09 11:22:39;;;;;;;7.68;1.95;;;;;;;;;;4934906;28;20023;-70
2023/09/09 11:25:06;;;;;;;7.05;2.00;;;;;;;;;;4941866;28;20504;-72
2023/09/09 11:27:33;;;;;;;5.85;2.20;;;;;;;;;;4930215;28;20034;-70
2023/09/09 11:29:59;;;;;;;8.90;2.10;;;;;;;;;;4937710;28;20137;-73
2023/09/09 11:32:26;;;;;;;5.10;1.95;;;;;;;;;;4930794;28;20113;-73
2023/09/09 11:34:53;;;;;;;5.15;1.75;;;;;;;;;;4932847;28;20490;-71
2023/09/09 11:37:19;;;;;;;6.57;1.98;;;;;;;;;;4930892;28;20735;-71
2023/09/09 11:39:45;;;;;;;6.78;1.90;;;;;;;;;;4932745;28;20029;-72
2023/09/09 11:42:11;;;;;;;6.63;1.63;;;;;;;;;;4936681;28;20059;-71
2023/09/09 11:44:41;;;;;;;5.65;2.00;;;;;;;;;;4932974;28;20028;-72
2023/09/09 11:47:08;;;;;;;5.18;1.58;;;;;;;;;;4937121;28;20912;-71
2023/09/09 11:49:34;;;;;;;5.72;1.70;;;;;;;;;;4939247;28;20025;-72
2023/09/09 11:52:01;;;;;;;6.63;2.05;;;;;;;;;;4936964;28;20061;-74
2023/09/09 11:54:27;;;;;;;4.97;1.75;;;;;;;;;;4932671;28;20437;-71
2023/09/09 11:57:03;;;;;;;5.53;1.83;;;;;;;;;;4932487;28;20066;-71
2023/09/09 11:59:29;;;;;;;4.95;1.60;;;;;;;;;;4931989;28;20032;-71
2023/09/09 12:01:55;;;;;;;5.90;1.90;;;;;;;;;;4935769;28;20141;-71
2023/09/09 12:04:21;;;;;;;5.07;1.80;;;;;;;;;;4932222;28;20031;-71
2023/09/09 12:06:49;;;;;;;6.38;1.90;;;;;;;;;;4935210;28;20035;-71
2023/09/09 12:09:16;;;;;;;6.75;2.35;;;;;;;;;;4933456;28;20970;-71
2023/09/09 12:11:42;;;;;;;5.35;1.90;;;;;;;;;;4933714;28;20047;-71
2023/09/09 12:14:10;;;;;;;6.25;2.10;;;;;;;;;;4929894;28;20039;-72
2023/09/09 12:16:36;;;;;;;6.53;1.95;;;;;;;;;;4933141;28;20066;-72
2023/09/09 12:19:02;;;;;;;7.05;1.83;;;;;;;;;;4936601;28;20254;-71
2023/09/09 12:21:29;;;;;;;4.70;1.60;;;;;;;;;;4930914;28;20038;-72
2023/09/09 12:23:59;;;;;;;6.22;1.83;;;;;;;;;;4934271;28;20608;-71
2023/09/09 12:26:26;;;;;;;5.70;1.73;;;;;;;;;;4933285;28;20042;-71
2023/09/09 12:29:09;;;;;;;5.95;1.73;;;;;;;;;;4937810;28;20308;-72
2023/09/09 12:31:49;;;;;;;6.18;1.95;;;;;;;;;;4934612;28;20085;-71
2023/09/09 12:34:22;;;;;;;6.97;2.10;;;;;;;;;;4931281;28;20614;-72
2023/09/09 12:36:49;;;;;;;5.75;2.00;;;;;;;;;;4933706;28;20035;-72
2023/09/09 12:39:25;;;;;;;7.93;2.10;;;;;;;;;;4938479;28;20078;-71
2023/09/09 12:42:01;;;;;;;6.18;2.00;;;;;;;;;;4932784;28;20478;-71
2023/09/09 12:44:28;;;;;;;6.70;2.30;;;;;;;;;;4928509;28;20447;-71
2023/09/09 12:46:54;;;;;;;6.30;2.00;;;;;;;;;;4934698;28;20548;-71
2023/09/09 12:49:21;;;;;;;5.82;2.05;;;;;;;;;;4933482;28;20043;-72
2023/09/09 12:51:47;;;;;;;6.38;1.98;;;;;;;;;;4940801;28;20031;-72
2023/09/09 12:54:13;;;;;;;5.15;2.00;;;;;;;;;;4937881;28;20130;-72
2023/09/09 12:56:39;;;;;;;5.65;2.00;;;;;;;;;;4940884;28;20544;-72
2023/09/09 12:59:06;;;;;;;7.10;2.20;;;;;;;;;;4938026;28;20045;-72
2023/09/09 13:01:32;;;;;;;6.07;1.73;;;;;;;;;;4934752;28;20062;-71
2023/09/09 13:03:59;;;;;;;7.78;1.70;;;;;;;;;;4936584;28;20041;-71
2023/09/09 13:06:25;;;;;;;6.70;2.10;;;;;;;;;;4951234;28;20027;-71
2023/09/09 13:08:51;;;;;;;5.32;1.90;;;;;;;;;;4938796;28;20039;-71
2023/09/09 13:11:17;;;;;;;5.28;1.85;;;;;;;;;;4938991;28;20259;-71
2023/09/09 13:13:44;;;;;;;6.70;2.00;;;;;;;;;;4938504;28;20039;-71
2023/09/09 13:16:12;;;;;;;7.45;2.25;;;;;;;;;;4937608;28;20145;-71
2023/09/09 13:18:38;;;;;;;6.18;2.40;;;;;;;;;;4942110;28;20058;-71
2023/09/09 13:21:04;;;;;;;6.65;2.00;;;;;;;;;;4948063;28;20066;-69
2023/09/09 13:23:30;;;;;;;6.85;1.92;;;;;;;;;;4940120;28;20035;-72
2023/09/09 13:25:56;;;;;;;6.63;2.00;;;;;;;;;;4944332;28;20034;-71
2023/09/09 13:28:22;;;;;;;4.88;1.83;;;;;;;;;;4944532;28;20547;-71
2023/09/09 13:30:48;;;;;;;6.22;2.20;;;;;;;;;;4945435;28;20490;-71
2023/09/09 13:33:14;;;;;;;6.65;1.90;;;;;;;;;;4947106;28;20129;-71
2023/09/09 13:35:41;;;;;;;5.35;1.80;;;;;;;;;;4946935;28;20038;-72
2023/09/09 13:38:07;;;;;;;8.43;1.83;;;;;;;;;;4942677;28;20153;-72
2023/09/09 13:40:34;;;;;;;6.45;1.90;;;;;;;;;;4945228;28;20030;-72
2023/09/09 13:43:00;;;;;;;7.28;2.20;;;;;;;;;;4945965;28;20294;-73
2023/09/09 13:45:27;;;;;;;5.88;2.20;;;;;;;;;;4945439;28;20046;-72
2023/09/09 13:47:53;;;;;;;5.63;2.00;;;;;;;;;;4944094;28;20035;-72
2023/09/09 13:50:19;;;;;;;6.88;2.40;;;;;;;;;;4943709;28;20031;-72
2023/09/09 13:52:45;;;;;;;7.60;2.50;;;;;;;;;;4946569;28;20027;-72
2023/09/09 13:55:11;;;;;;;7.20;2.30;;;;;;;;;;4943591;28;20463;-72
2023/09/09 13:57:37;;;;;;;6.85;2.20;;;;;;;;;;4947874;28;20118;-72
2023/09/09 14:00:04;;;;;;;5.30;2.00;;;;;;;;;;4945106;28;20477;-72
2023/09/09 14:02:30;;;;;;;6.13;2.55;;;;;;;;;;4943620;28;20031;-72
2023/09/09 14:04:57;;;;;;;8.15;2.90;;;;;;;;;;4946091;28;20039;-72
2023/09/09 14:07:23;;;;;;;6.82;2.50;;;;;;;;;;4941709;28;20073;-72
2023/09/09 14:09:49;;;;;;;7.93;2.25;;;;;;;;;;4943485;28;20302;-72
2023/09/09 14:12:15;;;;;;;7.43;2.75;;;;;;;;;;4942691;28;20039;-72
2023/09/09 14:14:41;;;;;;;6.07;2.50;;;;;;;;;;4947822;28;20482;-72
2023/09/09 14:17:07;;;;;;;11.10;2.78;;;;;;;;;;4948179;28;20035;-71
2023/09/09 14:19:33;;;;;;;5.32;2.03;;;;;;;;;;4941902;28;20369;-72
2023/09/09 14:21:59;;;;;;;6.82;2.35;;;;;;;;;;4947199;28;20121;-72
2023/09/09 14:24:26;;;;;;;6.30;2.60;;;;;;;;;;4943642;28;20027;-72
2023/09/09 14:26:52;;;;;;;8.60;2.95;;;;;;;;;;4946727;28;20109;-72
2023/09/09 14:29:18;;;;;;;6.40;2.30;;;;;;;;;;4942612;28;20572;-72
2023/09/09 14:31:44;;;;;;;10.85;2.40;;;;;;;;;;4944730;28;20110;-72
2023/09/09 14:34:10;;;;;;;8.82;2.50;;;;;;;;;;4944135;28;20067;-71
2023/09/09 14:36:36;;;;;;;6.93;2.10;;;;;;;;;;4946904;28;20495;-72
2023/09/09 14:39:02;;;;;;;5.93;2.30;;;;;;;;;;4942439;28;20030;-72
2023/09/09 14:41:28;;;;;;;6.45;2.00;;;;;;;;;;4944730;28;20129;-72